This is the latest recevied weather packets stored in our database for station/object KC9DRE. If no packets are shown the sender has not sent any weather packets the latest 10 day(s).
| Time | Temp. | Humidity | Pressure | Rain* | Wind** | Luminosity | Snow |
|---|---|---|---|---|---|---|---|
| 1787857909 | 29.44° C | 58% | 1015.6 hPa | 0 mm | - | 190 W/m² | - |
| 1787857605 | 30.56° C | 55% | 1015.9 hPa | 0 mm | - | 195 W/m² | - |
| 1787857304 | 31.67° C | 55% | 1016.1 hPa | 0 mm | - | 635 W/m² | - |
| 1787857003 | 31.11° C | 53% | 1015.8 hPa | 0 mm | - | 819 W/m² | - |
| 1787856703 | 30.56° C | 52% | 1015.9 hPa | 0 mm | - | 784 W/m² | - |
| 1787856397 | 30.56° C | 53% | 1016.1 hPa | 0 mm | - | 780 W/m² | - |
| 1787856092 | 29.44° C | 59% | 1016.1 hPa | 0 mm | - | 779 W/m² | - |
| 1787855792 | 28.89° C | 58% | 1016.2 hPa | 0 mm | - | 805 W/m² | - |
| 1787855488 | 28.89° C | 62% | 1016.1 hPa | 0 mm | - | 250 W/m² | - |
| 1787855184 | 29.44° C | 58% | 1015.9 hPa | 0 mm | - | 185 W/m² | - |
| 1787854879 | 28.89° C | 63% | 1015.8 hPa | 0 mm | - | 879 W/m² | - |
| 1787854579 | 28.33° C | 61% | 1016.2 hPa | 0 mm | - | 879 W/m² | - |
| 1787854273 | 29.44° C | 57% | 1016.1 hPa | 0 mm | - | 193 W/m² | - |
| 1787853969 | 31.11° C | 57% | 1016.2 hPa | 0 mm | - | 243 W/m² | - |
| 1787853668 | 30.56° C | 56% | 1016.1 hPa | 0 mm | - | 938 W/m² | - |
| 1787853362 | 30° C | 58% | 1016.1 hPa | 0 mm | - | 916 W/m² | - |
| 1787853061 | 30° C | 56% | 1016.3 hPa | 0 mm | - | 862 W/m² | - |
| 1787852756 | 29.44° C | 60% | 1016.3 hPa | 0 mm | - | 836 W/m² | - |
| 1787852455 | 30° C | 59% | 1016.4 hPa | 0 mm | - | 219 W/m² | - |
| 1787852155 | 30° C | 58% | 1016.3 hPa | 0 mm | - | 828 W/m² | - |
| 1787851850 | 29.44° C | 59% | 1016.3 hPa | 0 mm | - | 829 W/m² | - |
| 1787851549 | 29.44° C | 59% | 1016.3 hPa | 0 mm | - | 282 W/m² | - |
| 1787851244 | 28.33° C | 67% | 1016.5 hPa | 0 mm | - | 860 W/m² | - |
| 1787850940 | 28.89° C | 61% | 1016.2 hPa | 0 mm | - | 216 W/m² | - |
| 1787850636 | 28.89° C | 63% | 1016.5 hPa | 0 mm | - | 215 W/m² | - |
* Rain latest hour (hover to see other rain measurements)
** Current wind speed in m/s (hover to see current wind gust speed)